Estación Meteorológica Peña el Pijo (Robertgarden) [ 02/17/19 02:49:29 CET ]

Fecha Hora Presion(HPa) Temp (°C) Humedad % Rocio (°C) Viento ( m/s) Direccion Lluvia 1Hora(mm) Lluvia 24H(mm) LLuvia Total(mm)
2018-Dec-26 01:01:49 1017.500 0.6 80 -2.5         160.58
2018-Dec-26 02:06:14 1017.200 1.2 80 -1.9         160.58
2018-Dec-26 03:01:41 1017.400 0.8 81 -2.1         160.58
2018-Dec-26 04:01:37 1017.200 -0.2 81 -3.0         160.58
2018-Dec-26 05:01:50 1016.800 -0.4 82 -3.1         160.58
2018-Dec-26 06:01:48 1016.900 -1.1 82 -3.8         160.58
2018-Dec-26 07:01:39 1017.400 -1.3 83 -3.8         160.58
2018-Dec-26 08:01:58 1017.500 -1.8 83 -4.3         160.58
2018-Dec-26 09:01:41 1017.900 -1.2 83 -3.7         160.58
2018-Dec-26 10:01:51 1018.200 3.2 84 0.7         160.58
2018-Dec-26 11:01:44 1018.300 9.0 65 2.8         160.58
2018-Dec-26 12:01:57 1017.800 14.1 42 1.3         160.58
2018-Dec-26 13:01:39 1016.500 15.4 39 1.5         160.58
2018-Dec-26 14:01:42 1015.800 17.1 36 1.8         160.58
2018-Dec-26 15:01:48 1015.500 17.6 34 1.4         160.58
2018-Dec-26 16:01:52 1015.600 15.5 38 1.2         160.58
2018-Dec-26 17:01:56 1015.600 13.1 46 1.7         160.58
2018-Dec-26 18:01:43 1015.700 9.1 55 0.5         160.58
2018-Dec-26 19:01:37 1016.200 5.6 61 -1.3         160.58
2018-Dec-26 20:01:40 1016.500 3.6 66 -2.2         160.58
2018-Dec-26 21:01:36 1016.200 2.2 71 -2.5         160.58
2018-Dec-26 22:01:33 1016.200 1.3 73 -3.1         160.58
2018-Dec-26 23:01:36 1016.400 1.6 75 -2.4         160.58

Temperatura Máxima:17°    Temperatura Mínima:-1°
Presión Máxima:1018.300 Hpa    Presión Mínima:1015.500 Hpa


Volver